sensor_id;sensor_type;location;lat;lon;timestamp;P1;P2;P0
60816;PMS5003;51921;51.518;-3.188;2022-08-27T00:01:00;3;3;
60816;PMS5003;51921;51.518;-3.188;2022-08-27T00:03:26;4;4;
60816;PMS5003;51921;51.518;-3.188;2022-08-27T00:05:51;4;4;
60816;PMS5003;51921;51.518;-3.188;2022-08-27T00:08:17;3;3;
60816;PMS5003;51921;51.518;-3.188;2022-08-27T00:10:42;3;3;
60816;PMS5003;51921;51.518;-3.188;2022-08-27T00:13:07;4;4;
60816;PMS5003;51921;51.518;-3.188;2022-08-27T00:15:33;5;4;
60816;PMS5003;51921;51.518;-3.188;2022-08-27T00:17:58;5;5;
60816;PMS5003;51921;51.518;-3.188;2022-08-27T00:20:24;4;3;
60816;PMS5003;51921;51.518;-3.188;2022-08-27T00:22:49;3;3;
60816;PMS5003;51921;51.518;-3.188;2022-08-27T00:25:14;5;4;
60816;PMS5003;51921;51.518;-3.188;2022-08-27T00:27:40;3;2;
60816;PMS5003;51921;51.518;-3.188;2022-08-27T00:30:07;3;3;
60816;PMS5003;51921;51.518;-3.188;2022-08-27T00:32:30;4;4;
60816;PMS5003;51921;51.518;-3.188;2022-08-27T00:34:56;3;3;
60816;PMS5003;51921;51.518;-3.188;2022-08-27T00:37:21;2;2;
60816;PMS5003;51921;51.518;-3.188;2022-08-27T00:39:46;4;4;
60816;PMS5003;51921;51.518;-3.188;2022-08-27T00:42:12;4;4;
60816;PMS5003;51921;51.518;-3.188;2022-08-27T00:44:37;4;3;
60816;PMS5003;51921;51.518;-3.188;2022-08-27T00:47:04;4;4;
60816;PMS5003;51921;51.518;-3.188;2022-08-27T00:49:29;3;3;
60816;PMS5003;51921;51.518;-3.188;2022-08-27T00:51:55;2;2;
60816;PMS5003;51921;51.518;-3.188;2022-08-27T00:54:19;4;4;
60816;PMS5003;51921;51.518;-3.188;2022-08-27T00:56:44;4;4;
60816;PMS5003;51921;51.518;-3.188;2022-08-27T00:59:10;3;3;
60816;PMS5003;51921;51.518;-3.188;2022-08-27T01:01:35;4;4;
60816;PMS5003;51921;51.518;-3.188;2022-08-27T01:04:01;4;4;
60816;PMS5003;51921;51.518;-3.188;2022-08-27T01:06:27;4;4;
60816;PMS5003;51921;51.518;-3.188;2022-08-27T01:08:52;4;4;
60816;PMS5003;51921;51.518;-3.188;2022-08-27T01:11:17;3;3;
60816;PMS5003;51921;51.518;-3.188;2022-08-27T01:13:42;3;3;
60816;PMS5003;51921;51.518;-3.188;2022-08-27T01:16:07;4;4;
60816;PMS5003;51921;51.518;-3.188;2022-08-27T01:18:33;3;3;
60816;PMS5003;51921;51.518;-3.188;2022-08-27T01:20:59;3;3;
60816;PMS5003;51921;51.518;-3.188;2022-08-27T01:23:26;4;4;
60816;PMS5003;51921;51.518;-3.188;2022-08-27T01:25:49;3;3;
60816;PMS5003;51921;51.518;-3.188;2022-08-27T01:28:15;4;4;
60816;PMS5003;51921;51.518;-3.188;2022-08-27T01:30:40;4;4;
60816;PMS5003;51921;51.518;-3.188;2022-08-27T01:33:07;4;4;
60816;PMS5003;51921;51.518;-3.188;2022-08-27T01:35:30;3;3;
60816;PMS5003;51921;51.518;-3.188;2022-08-27T01:37:56;3;3;
60816;PMS5003;51921;51.518;-3.188;2022-08-27T01:40:21;3;3;
60816;PMS5003;51921;51.518;-3.188;2022-08-27T01:42:48;3;3;
60816;PMS5003;51921;51.518;-3.188;2022-08-27T01:45:13;4;4;
60816;PMS5003;51921;51.518;-3.188;2022-08-27T01:47:37;3;3;
60816;PMS5003;51921;51.518;-3.188;2022-08-27T01:50:04;4;4;
60816;PMS5003;51921;51.518;-3.188;2022-08-27T01:52:29;4;4;
60816;PMS5003;51921;51.518;-3.188;2022-08-27T01:54:53;3;3;
60816;PMS5003;51921;51.518;-3.188;2022-08-27T01:57:19;4;3;
60816;PMS5003;51921;51.518;-3.188;2022-08-27T01:59:44;3;3;
60816;PMS5003;51921;51.518;-3.188;2022-08-27T02:02:10;3;3;
60816;PMS5003;51921;51.518;-3.188;2022-08-27T02:04:35;6;5;
60816;PMS5003;51921;51.518;-3.188;2022-08-27T02:07:00;3;3;
60816;PMS5003;51921;51.518;-3.188;2022-08-27T02:09:26;4;3;
60816;PMS5003;51921;51.518;-3.188;2022-08-27T02:11:51;4;4;
60816;PMS5003;51921;51.518;-3.188;2022-08-27T02:14:16;4;4;
60816;PMS5003;51921;51.518;-3.188;2022-08-27T02:16:42;3;3;
60816;PMS5003;51921;51.518;-3.188;2022-08-27T02:19:07;4;4;
60816;PMS5003;51921;51.518;-3.188;2022-08-27T02:21:33;4;4;
60816;PMS5003;51921;51.518;-3.188;2022-08-27T02:23:58;2;2;
60816;PMS5003;51921;51.518;-3.188;2022-08-27T02:26:23;5;5;
60816;PMS5003;51921;51.518;-3.188;2022-08-27T02:28:49;6;6;
60816;PMS5003;51921;51.518;-3.188;2022-08-27T02:31:14;4;4;
60816;PMS5003;51921;51.518;-3.188;2022-08-27T02:33:40;4;4;
60816;PMS5003;51921;51.518;-3.188;2022-08-27T02:36:05;4;4;
60816;PMS5003;51921;51.518;-3.188;2022-08-27T02:38:30;4;4;
60816;PMS5003;51921;51.518;-3.188;2022-08-27T02:40:56;2;2;
60816;PMS5003;51921;51.518;-3.188;2022-08-27T02:43:21;3;3;
60816;PMS5003;51921;51.518;-3.188;2022-08-27T02:45:46;3;3;
60816;PMS5003;51921;51.518;-3.188;2022-08-27T02:48:12;3;3;
60816;PMS5003;51921;51.518;-3.188;2022-08-27T02:50:37;4;4;
60816;PMS5003;51921;51.518;-3.188;2022-08-27T02:53:03;4;4;
60816;PMS5003;51921;51.518;-3.188;2022-08-27T02:55:28;3;3;
60816;PMS5003;51921;51.518;-3.188;2022-08-27T02:57:53;4;4;
60816;PMS5003;51921;51.518;-3.188;2022-08-27T03:00:19;3;3;
60816;PMS5003;51921;51.518;-3.188;2022-08-27T03:02:44;3;3;
60816;PMS5003;51921;51.518;-3.188;2022-08-27T03:05:10;4;4;
60816;PMS5003;51921;51.518;-3.188;2022-08-27T03:07:35;4;4;
60816;PMS5003;51921;51.518;-3.188;2022-08-27T03:10:00;3;3;
60816;PMS5003;51921;51.518;-3.188;2022-08-27T03:12:26;4;4;
60816;PMS5003;51921;51.518;-3.188;2022-08-27T03:14:51;5;4;
60816;PMS5003;51921;51.518;-3.188;2022-08-27T03:17:17;4;4;
60816;PMS5003;51921;51.518;-3.188;2022-08-27T03:19:42;4;4;
60816;PMS5003;51921;51.518;-3.188;2022-08-27T03:22:07;6;6;
60816;PMS5003;51921;51.518;-3.188;2022-08-27T03:24:34;3;3;
60816;PMS5003;51921;51.518;-3.188;2022-08-27T03:26:58;5;5;
60816;PMS5003;51921;51.518;-3.188;2022-08-27T03:29:24;4;4;
60816;PMS5003;51921;51.518;-3.188;2022-08-27T03:31:49;3;3;
60816;PMS5003;51921;51.518;-3.188;2022-08-27T03:34:15;3;3;
60816;PMS5003;51921;51.518;-3.188;2022-08-27T03:36:40;4;4;
60816;PMS5003;51921;51.518;-3.188;2022-08-27T03:39:05;3;3;
60816;PMS5003;51921;51.518;-3.188;2022-08-27T03:41:31;4;3;
60816;PMS5003;51921;51.518;-3.188;2022-08-27T03:43:56;4;4;
60816;PMS5003;51921;51.518;-3.188;2022-08-27T03:46:22;4;4;
60816;PMS5003;51921;51.518;-3.188;2022-08-27T03:48:47;4;4;
60816;PMS5003;51921;51.518;-3.188;2022-08-27T03:51:13;3;3;
60816;PMS5003;51921;51.518;-3.188;2022-08-27T03:53:39;4;4;
60816;PMS5003;51921;51.518;-3.188;2022-08-27T03:56:03;4;4;
60816;PMS5003;51921;51.518;-3.188;2022-08-27T03:58:29;4;4;
60816;PMS5003;51921;51.518;-3.188;2022-08-27T04:00:54;3;3;
60816;PMS5003;51921;51.518;-3.188;2022-08-27T04:03:19;4;4;
60816;PMS5003;51921;51.518;-3.188;2022-08-27T04:05:45;3;3;
60816;PMS5003;51921;51.518;-3.188;2022-08-27T04:08:11;2;2;
60816;PMS5003;51921;51.518;-3.188;2022-08-27T04:10:37;3;3;
60816;PMS5003;51921;51.518;-3.188;2022-08-27T04:13:01;4;3;
60816;PMS5003;51921;51.518;-3.188;2022-08-27T04:15:27;4;4;
60816;PMS5003;51921;51.518;-3.188;2022-08-27T04:17:52;4;4;
60816;PMS5003;51921;51.518;-3.188;2022-08-27T04:20:17;4;4;
60816;PMS5003;51921;51.518;-3.188;2022-08-27T04:22:43;4;3;
60816;PMS5003;51921;51.518;-3.188;2022-08-27T04:25:08;4;4;
60816;PMS5003;51921;51.518;-3.188;2022-08-27T04:27:34;4;4;
60816;PMS5003;51921;51.518;-3.188;2022-08-27T04:29:59;4;4;
60816;PMS5003;51921;51.518;-3.188;2022-08-27T04:32:25;3;3;
60816;PMS5003;51921;51.518;-3.188;2022-08-27T04:34:52;5;5;
60816;PMS5003;51921;51.518;-3.188;2022-08-27T04:37:15;5;5;
60816;PMS5003;51921;51.518;-3.188;2022-08-27T04:39:41;4;4;
60816;PMS5003;51921;51.518;-3.188;2022-08-27T04:42:06;4;4;
60816;PMS5003;51921;51.518;-3.188;2022-08-27T04:44:31;6;6;
60816;PMS5003;51921;51.518;-3.188;2022-08-27T04:46:58;4;4;
60816;PMS5003;51921;51.518;-3.188;2022-08-27T04:49:23;7;4;
60816;PMS5003;51921;51.518;-3.188;2022-08-27T04:51:48;3;3;
60816;PMS5003;51921;51.518;-3.188;2022-08-27T04:54:13;2;2;
60816;PMS5003;51921;51.518;-3.188;2022-08-27T04:56:39;5;4;
60816;PMS5003;51921;51.518;-3.188;2022-08-27T04:59:05;5;5;
60816;PMS5003;51921;51.518;-3.188;2022-08-27T05:01:30;4;4;
60816;PMS5003;51921;51.518;-3.188;2022-08-27T05:03:55;5;5;
60816;PMS5003;51921;51.518;-3.188;2022-08-27T05:06:20;4;4;
60816;PMS5003;51921;51.518;-3.188;2022-08-27T05:08:46;5;5;
60816;PMS5003;51921;51.518;-3.188;2022-08-27T05:11:12;6;5;
60816;PMS5003;51921;51.518;-3.188;2022-08-27T05:13:37;5;5;
60816;PMS5003;51921;51.518;-3.188;2022-08-27T05:16:03;5;5;
60816;PMS5003;51921;51.518;-3.188;2022-08-27T05:18:28;5;5;
60816;PMS5003;51921;51.518;-3.188;2022-08-27T05:20:53;4;4;
60816;PMS5003;51921;51.518;-3.188;2022-08-27T05:23:18;6;6;
60816;PMS5003;51921;51.518;-3.188;2022-08-27T05:25:44;3;3;
60816;PMS5003;51921;51.518;-3.188;2022-08-27T05:28:09;4;4;
60816;PMS5003;51921;51.518;-3.188;2022-08-27T05:30:35;4;4;
60816;PMS5003;51921;51.518;-3.188;2022-08-27T05:33:00;4;4;
60816;PMS5003;51921;51.518;-3.188;2022-08-27T05:35:25;5;5;
60816;PMS5003;51921;51.518;-3.188;2022-08-27T05:37:51;6;6;
60816;PMS5003;51921;51.518;-3.188;2022-08-27T05:40:16;3;3;
60816;PMS5003;51921;51.518;-3.188;2022-08-27T05:42:42;4;4;
60816;PMS5003;51921;51.518;-3.188;2022-08-27T05:45:07;3;3;
60816;PMS5003;51921;51.518;-3.188;2022-08-27T05:47:32;4;3;
60816;PMS5003;51921;51.518;-3.188;2022-08-27T05:49:58;5;5;
60816;PMS5003;51921;51.518;-3.188;2022-08-27T05:52:23;5;5;
60816;PMS5003;51921;51.518;-3.188;2022-08-27T05:54:49;4;4;
60816;PMS5003;51921;51.518;-3.188;2022-08-27T05:57:14;5;5;
60816;PMS5003;51921;51.518;-3.188;2022-08-27T05:59:39;4;4;
60816;PMS5003;51921;51.518;-3.188;2022-08-27T06:02:05;6;6;
60816;PMS5003;51921;51.518;-3.188;2022-08-27T06:04:30;5;5;
60816;PMS5003;51921;51.518;-3.188;2022-08-27T06:06:56;4;4;
60816;PMS5003;51921;51.518;-3.188;2022-08-27T06:09:22;5;5;
60816;PMS5003;51921;51.518;-3.188;2022-08-27T06:11:47;5;5;
60816;PMS5003;51921;51.518;-3.188;2022-08-27T06:14:12;5;5;
60816;PMS5003;51921;51.518;-3.188;2022-08-27T06:16:38;4;4;
60816;PMS5003;51921;51.518;-3.188;2022-08-27T06:19:03;5;5;
60816;PMS5003;51921;51.518;-3.188;2022-08-27T06:21:28;5;5;
60816;PMS5003;51921;51.518;-3.188;2022-08-27T06:23:54;6;6;
60816;PMS5003;51921;51.518;-3.188;2022-08-27T06:26:20;6;5;
60816;PMS5003;51921;51.518;-3.188;2022-08-27T06:28:45;7;6;
60816;PMS5003;51921;51.518;-3.188;2022-08-27T06:31:11;5;4;
60816;PMS5003;51921;51.518;-3.188;2022-08-27T06:33:35;6;5;
60816;PMS5003;51921;51.518;-3.188;2022-08-27T06:36:01;6;6;
60816;PMS5003;51921;51.518;-3.188;2022-08-27T06:38:26;6;6;
60816;PMS5003;51921;51.518;-3.188;2022-08-27T06:40:51;4;4;
60816;PMS5003;51921;51.518;-3.188;2022-08-27T06:43:17;5;5;
60816;PMS5003;51921;51.518;-3.188;2022-08-27T06:45:42;3;3;
60816;PMS5003;51921;51.518;-3.188;2022-08-27T06:48:08;4;4;
60816;PMS5003;51921;51.518;-3.188;2022-08-27T06:50:36;5;5;
60816;PMS5003;51921;51.518;-3.188;2022-08-27T06:52:58;6;6;
60816;PMS5003;51921;51.518;-3.188;2022-08-27T06:55:24;4;4;
60816;PMS5003;51921;51.518;-3.188;2022-08-27T06:57:49;5;5;
60816;PMS5003;51921;51.518;-3.188;2022-08-27T07:00:15;6;5;
60816;PMS5003;51921;51.518;-3.188;2022-08-27T07:02:40;7;7;
60816;PMS5003;51921;51.518;-3.188;2022-08-27T07:05:06;5;5;
60816;PMS5003;51921;51.518;-3.188;2022-08-27T07:07:31;6;5;
60816;PMS5003;51921;51.518;-3.188;2022-08-27T07:09:58;6;5;
60816;PMS5003;51921;51.518;-3.188;2022-08-27T07:12:22;6;6;
60816;PMS5003;51921;51.518;-3.188;2022-08-27T07:14:47;7;7;
60816;PMS5003;51921;51.518;-3.188;2022-08-27T07:17:12;8;8;
60816;PMS5003;51921;51.518;-3.188;2022-08-27T07:19:38;8;6;
60816;PMS5003;51921;51.518;-3.188;2022-08-27T07:22:03;8;8;
60816;PMS5003;51921;51.518;-3.188;2022-08-27T07:24:28;7;7;
60816;PMS5003;51921;51.518;-3.188;2022-08-27T07:26:54;7;7;
60816;PMS5003;51921;51.518;-3.188;2022-08-27T07:29:19;7;7;
60816;PMS5003;51921;51.518;-3.188;2022-08-27T07:31:45;7;7;
60816;PMS5003;51921;51.518;-3.188;2022-08-27T07:34:10;8;8;
60816;PMS5003;51921;51.518;-3.188;2022-08-27T07:36:35;9;9;
60816;PMS5003;51921;51.518;-3.188;2022-08-27T07:39:01;8;8;
60816;PMS5003;51921;51.518;-3.188;2022-08-27T07:41:27;10;9;
60816;PMS5003;51921;51.518;-3.188;2022-08-27T07:43:52;8;8;
60816;PMS5003;51921;51.518;-3.188;2022-08-27T07:46:17;7;6;
60816;PMS5003;51921;51.518;-3.188;2022-08-27T07:48:42;8;7;
60816;PMS5003;51921;51.518;-3.188;2022-08-27T07:51:11;9;8;
60816;PMS5003;51921;51.518;-3.188;2022-08-27T07:53:33;10;9;
60816;PMS5003;51921;51.518;-3.188;2022-08-27T07:56:01;9;8;
60816;PMS5003;51921;51.518;-3.188;2022-08-27T07:58:24;7;7;
60816;PMS5003;51921;51.518;-3.188;2022-08-27T08:00:49;7;7;
60816;PMS5003;51921;51.518;-3.188;2022-08-27T08:03:15;9;9;
60816;PMS5003;51921;51.518;-3.188;2022-08-27T08:05:41;11;11;
60816;PMS5003;51921;51.518;-3.188;2022-08-27T08:08:06;10;10;
60816;PMS5003;51921;51.518;-3.188;2022-08-27T08:10:31;9;9;
60816;PMS5003;51921;51.518;-3.188;2022-08-27T08:12:56;7;6;
60816;PMS5003;51921;51.518;-3.188;2022-08-27T08:15:22;6;6;
60816;PMS5003;51921;51.518;-3.188;2022-08-27T08:17:47;7;7;
60816;PMS5003;51921;51.518;-3.188;2022-08-27T08:20:13;6;5;
60816;PMS5003;51921;51.518;-3.188;2022-08-27T08:22:38;7;6;
60816;PMS5003;51921;51.518;-3.188;2022-08-27T08:25:04;5;5;
60816;PMS5003;51921;51.518;-3.188;2022-08-27T08:27:29;9;9;
60816;PMS5003;51921;51.518;-3.188;2022-08-27T08:29:54;9;8;
60816;PMS5003;51921;51.518;-3.188;2022-08-27T08:32:19;11;9;
60816;PMS5003;51921;51.518;-3.188;2022-08-27T08:34:45;9;8;
60816;PMS5003;51921;51.518;-3.188;2022-08-27T08:37:10;10;9;
60816;PMS5003;51921;51.518;-3.188;2022-08-27T08:39:36;10;9;
60816;PMS5003;51921;51.518;-3.188;2022-08-27T08:42:02;12;12;
60816;PMS5003;51921;51.518;-3.188;2022-08-27T08:44:28;12;12;
60816;PMS5003;51921;51.518;-3.188;2022-08-27T08:46:52;10;9;
60816;PMS5003;51921;51.518;-3.188;2022-08-27T08:49:21;9;9;
60816;PMS5003;51921;51.518;-3.188;2022-08-27T08:51:43;11;11;
60816;PMS5003;51921;51.518;-3.188;2022-08-27T08:54:09;14;14;
60816;PMS5003;51921;51.518;-3.188;2022-08-27T08:56:35;12;11;
60816;PMS5003;51921;51.518;-3.188;2022-08-27T08:59:00;20;20;
60816;PMS5003;51921;51.518;-3.188;2022-08-27T09:01:24;13;12;
60816;PMS5003;51921;51.518;-3.188;2022-08-27T09:03:51;12;12;
60816;PMS5003;51921;51.518;-3.188;2022-08-27T09:06:17;18;16;
60816;PMS5003;51921;51.518;-3.188;2022-08-27T09:08:41;22;22;
60816;PMS5003;51921;51.518;-3.188;2022-08-27T09:11:07;16;16;
60816;PMS5003;51921;51.518;-3.188;2022-08-27T09:13:32;18;15;
60816;PMS5003;51921;51.518;-3.188;2022-08-27T09:15:57;19;17;
60816;PMS5003;51921;51.518;-3.188;2022-08-27T09:18:22;24;22;
60816;PMS5003;51921;51.518;-3.188;2022-08-27T09:20:49;18;18;
60816;PMS5003;51921;51.518;-3.188;2022-08-27T09:23:13;17;16;
60816;PMS5003;51921;51.518;-3.188;2022-08-27T09:25:39;19;18;
60816;PMS5003;51921;51.518;-3.188;2022-08-27T09:28:09;19;15;
60816;PMS5003;51921;51.518;-3.188;2022-08-27T09:30:31;20;19;
60816;PMS5003;51921;51.518;-3.188;2022-08-27T09:32:56;19;18;
60816;PMS5003;51921;51.518;-3.188;2022-08-27T09:35:20;22;19;
60816;PMS5003;51921;51.518;-3.188;2022-08-27T09:37:47;19;17;
60816;PMS5003;51921;51.518;-3.188;2022-08-27T09:40:13;18;18;
60816;PMS5003;51921;51.518;-3.188;2022-08-27T09:42:37;22;20;
60816;PMS5003;51921;51.518;-3.188;2022-08-27T09:45:05;16;16;
60816;PMS5003;51921;51.518;-3.188;2022-08-27T09:47:26;18;18;
60816;PMS5003;51921;51.518;-3.188;2022-08-27T09:50:01;21;20;
60816;PMS5003;51921;51.518;-3.188;2022-08-27T09:54:43;20;19;
60816;PMS5003;51921;51.518;-3.188;2022-08-27T09:57:08;16;16;
60816;PMS5003;51921;51.518;-3.188;2022-08-27T09:59:33;23;20;
60816;PMS5003;51921;51.518;-3.188;2022-08-27T10:02:01;21;21;
60816;PMS5003;51921;51.518;-3.188;2022-08-27T10:04:24;17;17;
60816;PMS5003;51921;51.518;-3.188;2022-08-27T10:06:49;21;20;
60816;PMS5003;51921;51.518;-3.188;2022-08-27T10:09:14;23;23;
60816;PMS5003;51921;51.518;-3.188;2022-08-27T10:11:39;20;19;
60816;PMS5003;51921;51.518;-3.188;2022-08-27T10:14:05;19;17;
60816;PMS5003;51921;51.518;-3.188;2022-08-27T10:16:35;21;20;
60816;PMS5003;51921;51.518;-3.188;2022-08-27T10:18:58;20;19;
60816;PMS5003;51921;51.518;-3.188;2022-08-27T10:21:21;18;18;
60816;PMS5003;51921;51.518;-3.188;2022-08-27T10:23:48;16;16;
60816;PMS5003;51921;51.518;-3.188;2022-08-27T10:26:13;22;21;
60816;PMS5003;51921;51.518;-3.188;2022-08-27T10:28:39;20;20;
60816;PMS5003;51921;51.518;-3.188;2022-08-27T10:31:06;18;17;
60816;PMS5003;51921;51.518;-3.188;2022-08-27T10:33:30;17;17;
60816;PMS5003;51921;51.518;-3.188;2022-08-27T10:35:55;18;18;
60816;PMS5003;51921;51.518;-3.188;2022-08-27T10:38:20;20;19;
60816;PMS5003;51921;51.518;-3.188;2022-08-27T10:40:44;21;20;
60816;PMS5003;51921;51.518;-3.188;2022-08-27T10:43:13;22;18;
60816;PMS5003;51921;51.518;-3.188;2022-08-27T10:45:37;21;21;
60816;PMS5003;51921;51.518;-3.188;2022-08-27T10:48:02;17;17;
60816;PMS5003;51921;51.518;-3.188;2022-08-27T10:50:26;20;20;
60816;PMS5003;51921;51.518;-3.188;2022-08-27T10:52:50;16;15;
60816;PMS5003;51921;51.518;-3.188;2022-08-27T10:55:18;19;17;
60816;PMS5003;51921;51.518;-3.188;2022-08-27T10:57:45;18;17;
60816;PMS5003;51921;51.518;-3.188;2022-08-27T11:00:06;15;14;
60816;PMS5003;51921;51.518;-3.188;2022-08-27T11:02:31;15;15;
60816;PMS5003;51921;51.518;-3.188;2022-08-27T11:04:56;17;16;
60816;PMS5003;51921;51.518;-3.188;2022-08-27T11:07:21;14;13;
60816;PMS5003;51921;51.518;-3.188;2022-08-27T11:09:46;19;18;
60816;PMS5003;51921;51.518;-3.188;2022-08-27T11:12:12;17;17;
60816;PMS5003;51921;51.518;-3.188;2022-08-27T11:14:37;11;11;
60816;PMS5003;51921;51.518;-3.188;2022-08-27T11:17:03;16;16;
60816;PMS5003;51921;51.518;-3.188;2022-08-27T11:19:30;16;15;
60816;PMS5003;51921;51.518;-3.188;2022-08-27T11:21:54;18;17;
60816;PMS5003;51921;51.518;-3.188;2022-08-27T11:24:21;17;16;
60816;PMS5003;51921;51.518;-3.188;2022-08-27T11:26:43;15;15;
60816;PMS5003;51921;51.518;-3.188;2022-08-27T11:29:09;17;17;
60816;PMS5003;51921;51.518;-3.188;2022-08-27T11:31:35;18;16;
60816;PMS5003;51921;51.518;-3.188;2022-08-27T11:34:00;22;20;
60816;PMS5003;51921;51.518;-3.188;2022-08-27T11:36:31;25;24;
60816;PMS5003;51921;51.518;-3.188;2022-08-27T11:38:51;18;16;
60816;PMS5003;51921;51.518;-3.188;2022-08-27T11:41:18;15;15;
60816;PMS5003;51921;51.518;-3.188;2022-08-27T11:43:40;17;16;
60816;PMS5003;51921;51.518;-3.188;2022-08-27T11:46:06;13;13;
60816;PMS5003;51921;51.518;-3.188;2022-08-27T11:48:30;17;16;
60816;PMS5003;51921;51.518;-3.188;2022-08-27T11:50:56;15;14;
60816;PMS5003;51921;51.518;-3.188;2022-08-27T11:53:25;15;15;
60816;PMS5003;51921;51.518;-3.188;2022-08-27T11:55:46;14;13;
60816;PMS5003;51921;51.518;-3.188;2022-08-27T12:00:37;14;14;
60816;PMS5003;51921;51.518;-3.188;2022-08-27T12:03:04;15;14;
60816;PMS5003;51921;51.518;-3.188;2022-08-27T12:05:33;19;17;
60816;PMS5003;51921;51.518;-3.188;2022-08-27T12:07:54;16;16;
60816;PMS5003;51921;51.518;-3.188;2022-08-27T12:10:25;11;11;
60816;PMS5003;51921;51.518;-3.188;2022-08-27T12:12:50;11;11;
60816;PMS5003;51921;51.518;-3.188;2022-08-27T12:15:15;13;13;
60816;PMS5003;51921;51.518;-3.188;2022-08-27T12:17:38;15;15;
60816;PMS5003;51921;51.518;-3.188;2022-08-27T12:20:05;14;14;
60816;PMS5003;51921;51.518;-3.188;2022-08-27T12:22:35;16;15;
60816;PMS5003;51921;51.518;-3.188;2022-08-27T12:24:53;15;14;
60816;PMS5003;51921;51.518;-3.188;2022-08-27T12:27:26;14;14;
60816;PMS5003;51921;51.518;-3.188;2022-08-27T12:29:47;12;12;
60816;PMS5003;51921;51.518;-3.188;2022-08-27T12:32:13;17;16;
60816;PMS5003;51921;51.518;-3.188;2022-08-27T12:34:40;9;9;
60816;PMS5003;51921;51.518;-3.188;2022-08-27T12:37:00;9;9;
60816;PMS5003;51921;51.518;-3.188;2022-08-27T12:39:26;13;13;
60816;PMS5003;51921;51.518;-3.188;2022-08-27T12:41:50;10;9;
60816;PMS5003;51921;51.518;-3.188;2022-08-27T12:46:44;11;10;
60816;PMS5003;51921;51.518;-3.188;2022-08-27T12:49:06;12;11;
60816;PMS5003;51921;51.518;-3.188;2022-08-27T12:51:32;12;10;
60816;PMS5003;51921;51.518;-3.188;2022-08-27T12:53:58;9;8;
60816;PMS5003;51921;51.518;-3.188;2022-08-27T12:56:26;10;10;
60816;PMS5003;51921;51.518;-3.188;2022-08-27T12:58:49;10;9;
60816;PMS5003;51921;51.518;-3.188;2022-08-27T13:01:18;11;10;
60816;PMS5003;51921;51.518;-3.188;2022-08-27T13:03:38;12;11;
60816;PMS5003;51921;51.518;-3.188;2022-08-27T13:08:30;12;12;
60816;PMS5003;51921;51.518;-3.188;2022-08-27T13:10:54;10;10;
60816;PMS5003;51921;51.518;-3.188;2022-08-27T13:13:20;13;13;
60816;PMS5003;51921;51.518;-3.188;2022-08-27T13:15:45;12;11;
60816;PMS5003;51921;51.518;-3.188;2022-08-27T13:18:10;9;9;
60816;PMS5003;51921;51.518;-3.188;2022-08-27T13:20:36;11;10;
60816;PMS5003;51921;51.518;-3.188;2022-08-27T13:23:01;13;13;
60816;PMS5003;51921;51.518;-3.188;2022-08-27T13:25:28;11;10;
60816;PMS5003;51921;51.518;-3.188;2022-08-27T13:27:52;9;9;
60816;PMS5003;51921;51.518;-3.188;2022-08-27T13:30:17;8;8;
60816;PMS5003;51921;51.518;-3.188;2022-08-27T13:32:42;8;8;
60816;PMS5003;51921;51.518;-3.188;2022-08-27T13:35:07;9;9;
60816;PMS5003;51921;51.518;-3.188;2022-08-27T13:37:34;11;11;
60816;PMS5003;51921;51.518;-3.188;2022-08-27T13:39:58;10;10;
60816;PMS5003;51921;51.518;-3.188;2022-08-27T13:42:23;10;10;
60816;PMS5003;51921;51.518;-3.188;2022-08-27T13:44:49;11;11;
60816;PMS5003;51921;51.518;-3.188;2022-08-27T13:47:15;10;9;
60816;PMS5003;51921;51.518;-3.188;2022-08-27T13:49:40;9;9;
60816;PMS5003;51921;51.518;-3.188;2022-08-27T13:52:05;8;8;
60816;PMS5003;51921;51.518;-3.188;2022-08-27T13:54:30;11;11;
60816;PMS5003;51921;51.518;-3.188;2022-08-27T13:56:58;12;11;
60816;PMS5003;51921;51.518;-3.188;2022-08-27T13:59:22;11;11;
60816;PMS5003;51921;51.518;-3.188;2022-08-27T14:06:39;6;6;
60816;PMS5003;51921;51.518;-3.188;2022-08-27T14:09:09;6;6;
60816;PMS5003;51921;51.518;-3.188;2022-08-27T14:11:28;6;6;
60816;PMS5003;51921;51.518;-3.188;2022-08-27T14:13:54;8;8;
60816;PMS5003;51921;51.518;-3.188;2022-08-27T14:16:22;11;9;
60816;PMS5003;51921;51.518;-3.188;2022-08-27T14:18:50;8;8;
60816;PMS5003;51921;51.518;-3.188;2022-08-27T14:21:09;8;8;
60816;PMS5003;51921;51.518;-3.188;2022-08-27T14:23:35;9;9;
60816;PMS5003;51921;51.518;-3.188;2022-08-27T14:26:01;8;8;
60816;PMS5003;51921;51.518;-3.188;2022-08-27T14:28:25;7;7;
60816;PMS5003;51921;51.518;-3.188;2022-08-27T14:30:51;9;9;
60816;PMS5003;51921;51.518;-3.188;2022-08-27T14:33:16;9;8;
60816;PMS5003;51921;51.518;-3.188;2022-08-27T14:35:41;9;8;
60816;PMS5003;51921;51.518;-3.188;2022-08-27T14:38:10;9;9;
60816;PMS5003;51921;51.518;-3.188;2022-08-27T14:40:32;7;7;
60816;PMS5003;51921;51.518;-3.188;2022-08-27T14:42:57;9;9;
60816;PMS5003;51921;51.518;-3.188;2022-08-27T14:45:22;9;9;
60816;PMS5003;51921;51.518;-3.188;2022-08-27T14:47:48;10;9;
60816;PMS5003;51921;51.518;-3.188;2022-08-27T14:50:13;10;9;
60816;PMS5003;51921;51.518;-3.188;2022-08-27T14:52:38;10;10;
60816;PMS5003;51921;51.518;-3.188;2022-08-27T14:55:04;8;8;
60816;PMS5003;51921;51.518;-3.188;2022-08-27T14:57:29;5;5;
60816;PMS5003;51921;51.518;-3.188;2022-08-27T14:59:54;6;6;
60816;PMS5003;51921;51.518;-3.188;2022-08-27T15:02:19;8;8;
60816;PMS5003;51921;51.518;-3.188;2022-08-27T15:04:45;9;9;
60816;PMS5003;51921;51.518;-3.188;2022-08-27T15:07:10;8;7;
60816;PMS5003;51921;51.518;-3.188;2022-08-27T15:09:35;8;8;
60816;PMS5003;51921;51.518;-3.188;2022-08-27T15:12:01;8;8;
60816;PMS5003;51921;51.518;-3.188;2022-08-27T15:14:27;6;6;
60816;PMS5003;51921;51.518;-3.188;2022-08-27T15:16:51;7;7;
60816;PMS5003;51921;51.518;-3.188;2022-08-27T15:19:17;7;7;
60816;PMS5003;51921;51.518;-3.188;2022-08-27T15:21:43;7;7;
60816;PMS5003;51921;51.518;-3.188;2022-08-27T15:24:09;5;5;
60816;PMS5003;51921;51.518;-3.188;2022-08-27T15:26:32;6;5;
60816;PMS5003;51921;51.518;-3.188;2022-08-27T15:28:58;6;5;
60816;PMS5003;51921;51.518;-3.188;2022-08-27T15:31:23;8;7;
60816;PMS5003;51921;51.518;-3.188;2022-08-27T15:33:48;7;6;
60816;PMS5003;51921;51.518;-3.188;2022-08-27T15:36:13;6;6;
60816;PMS5003;51921;51.518;-3.188;2022-08-27T15:38:39;6;6;
60816;PMS5003;51921;51.518;-3.188;2022-08-27T15:41:04;5;5;
60816;PMS5003;51921;51.518;-3.188;2022-08-27T15:43:29;5;5;
60816;PMS5003;51921;51.518;-3.188;2022-08-27T15:45:55;6;6;
60816;PMS5003;51921;51.518;-3.188;2022-08-27T15:48:20;5;5;
60816;PMS5003;51921;51.518;-3.188;2022-08-27T15:50:45;5;5;
60816;PMS5003;51921;51.518;-3.188;2022-08-27T15:53:10;5;5;
60816;PMS5003;51921;51.518;-3.188;2022-08-27T15:55:36;6;6;
60816;PMS5003;51921;51.518;-3.188;2022-08-27T15:58:01;7;7;
60816;PMS5003;51921;51.518;-3.188;2022-08-27T16:00:27;6;6;
60816;PMS5003;51921;51.518;-3.188;2022-08-27T16:02:52;5;5;
60816;PMS5003;51921;51.518;-3.188;2022-08-27T16:05:17;7;7;
60816;PMS5003;51921;51.518;-3.188;2022-08-27T16:07:42;6;6;
60816;PMS5003;51921;51.518;-3.188;2022-08-27T16:10:08;5;5;
60816;PMS5003;51921;51.518;-3.188;2022-08-27T16:12:33;7;7;
60816;PMS5003;51921;51.518;-3.188;2022-08-27T16:14:58;5;5;
60816;PMS5003;51921;51.518;-3.188;2022-08-27T16:17:23;5;5;
60816;PMS5003;51921;51.518;-3.188;2022-08-27T16:19:49;6;5;
60816;PMS5003;51921;51.518;-3.188;2022-08-27T16:22:14;6;6;
60816;PMS5003;51921;51.518;-3.188;2022-08-27T16:24:39;7;7;